createdAt,value
2023-03-17T00:01:27.895Z,64.75
2023-03-17T00:03:56.748Z,65.47
2023-03-17T00:06:29.643Z,65.30
2023-03-17T00:08:58.395Z,65.57
2023-03-17T00:11:29.338Z,65.28
2023-03-17T00:13:57.798Z,65.27
2023-03-17T00:16:30.456Z,65.69
2023-03-17T00:18:59.066Z,66.11
2023-03-17T00:21:31.169Z,65.83
2023-03-17T00:24:00.319Z,65.47
2023-03-17T00:26:29.310Z,66.01
2023-03-17T00:28:58.053Z,65.81
2023-03-17T00:31:31.101Z,65.41
2023-03-17T00:34:00.545Z,65.40
2023-03-17T00:36:31.648Z,65.75
2023-03-17T00:39:01.131Z,65.34
2023-03-17T00:41:29.675Z,65.12
2023-03-17T00:43:59.022Z,65.24
2023-03-17T00:46:36.105Z,65.65
2023-03-17T00:49:11.942Z,65.42
2023-03-17T00:51:40.317Z,65.67
2023-03-17T00:54:10.370Z,65.16
2023-03-17T00:56:39.838Z,65.23
2023-03-17T00:59:20.561Z,65.23
2023-03-17T01:01:51.228Z,65.39
2023-03-17T01:04:21.502Z,65.49
2023-03-17T01:06:52.132Z,65.76
2023-03-17T01:09:25.780Z,65.98
2023-03-17T01:11:55.138Z,65.45
2023-03-17T01:14:24.731Z,65.92
2023-03-17T01:16:55.176Z,65.72
2023-03-17T01:19:23.902Z,65.56
2023-03-17T01:21:52.444Z,65.91
2023-03-17T01:24:21.045Z,65.84
2023-03-17T01:26:49.440Z,66.19
2023-03-17T01:29:18.556Z,65.96
2023-03-17T01:31:47.713Z,66.08
2023-03-17T01:34:17.832Z,66.34
2023-03-17T01:36:46.810Z,65.81
2023-03-17T01:39:15.301Z,66.00
2023-03-17T01:41:45.658Z,66.32
2023-03-17T01:44:18.359Z,66.50
2023-03-17T01:46:47.703Z,66.38
2023-03-17T01:49:23.849Z,66.44
2023-03-17T01:51:58.903Z,66.25
2023-03-17T01:54:34.713Z,66.47
2023-03-17T01:57:10.598Z,66.38
2023-03-17T01:59:45.457Z,66.22
2023-03-17T02:02:19.741Z,66.24
2023-03-17T02:04:50.440Z,66.49
2023-03-17T02:07:20.494Z,66.21
2023-03-17T02:09:49.229Z,66.39
2023-03-17T02:12:17.718Z,66.35
2023-03-17T02:14:46.768Z,66.21
2023-03-17T02:17:15.153Z,66.23
2023-03-17T02:19:43.717Z,66.39
2023-03-17T02:22:13.797Z,66.24
2023-03-17T02:24:44.501Z,66.23
2023-03-17T02:27:18.555Z,66.36
2023-03-17T02:29:47.480Z,66.40
2023-03-17T02:32:18.690Z,66.32
2023-03-17T02:34:49.724Z,66.44
2023-03-17T02:37:21.017Z,66.53
2023-03-17T02:39:49.567Z,66.58
2023-03-17T02:42:18.068Z,66.64
2023-03-17T02:44:46.709Z,66.74
2023-03-17T02:47:15.203Z,66.78
2023-03-17T02:49:44.611Z,66.77
2023-03-17T02:52:13.232Z,66.71
2023-03-17T02:54:42.997Z,66.65
2023-03-17T02:57:11.671Z,66.71
2023-03-17T02:59:40.045Z,66.60
2023-03-17T03:02:08.533Z,66.38
2023-03-17T03:04:37.554Z,66.30
2023-03-17T03:07:06.123Z,66.47
2023-03-17T03:09:34.564Z,66.70
2023-03-17T03:12:04.565Z,66.44
2023-03-17T03:14:37.543Z,66.48
2023-03-17T03:17:06.145Z,66.36
2023-03-17T03:19:34.493Z,66.47
2023-03-17T03:22:02.858Z,66.48
2023-03-17T03:24:31.442Z,66.55
2023-03-17T03:26:59.936Z,66.55
2023-03-17T03:29:29.662Z,66.40
2023-03-17T03:31:58.267Z,66.68
2023-03-17T03:34:27.816Z,66.65
2023-03-17T03:36:56.154Z,66.71
2023-03-17T03:39:24.573Z,66.57
2023-03-17T03:41:55.517Z,66.76
2023-03-17T03:44:24.300Z,66.76
2023-03-17T03:46:54.084Z,66.91
2023-03-17T03:49:22.660Z,67.16
2023-03-17T03:51:51.264Z,66.94
2023-03-17T03:54:22.364Z,66.87
2023-03-17T03:56:50.760Z,66.66
2023-03-17T03:59:19.208Z,66.85
2023-03-17T04:01:47.559Z,66.97
2023-03-17T04:04:17.599Z,66.84
2023-03-17T04:06:46.381Z,66.99
2023-03-17T04:09:14.785Z,67.27
2023-03-17T04:11:43.127Z,67.11
2023-03-17T04:14:11.642Z,67.36
2023-03-17T04:16:42.209Z,67.23
2023-03-17T04:19:12.466Z,67.43
2023-03-17T04:21:42.319Z,67.33
2023-03-17T04:24:10.933Z,67.44
2023-03-17T04:26:39.326Z,67.36
2023-03-17T04:29:08.872Z,67.53
2023-03-17T04:31:37.652Z,67.80
2023-03-17T04:34:06.353Z,67.61
2023-03-17T04:36:34.785Z,67.66
2023-03-17T04:39:04.917Z,67.96
2023-03-17T04:41:33.360Z,67.73
2023-03-17T04:44:01.747Z,67.87
2023-03-17T04:46:30.144Z,67.52
2023-03-17T04:48:58.586Z,67.56
2023-03-17T04:51:27.318Z,67.20
2023-03-17T04:53:55.995Z,67.26
2023-03-17T04:56:25.803Z,67.04
2023-03-17T04:58:54.155Z,67.14
2023-03-17T05:01:23.451Z,67.14
2023-03-17T05:03:51.884Z,67.25
2023-03-17T05:06:20.252Z,67.30
2023-03-17T05:08:48.628Z,67.29
2023-03-17T05:11:17.855Z,67.36
2023-03-17T05:13:47.810Z,67.13
2023-03-17T05:16:16.294Z,67.10
2023-03-17T05:18:44.871Z,67.36
2023-03-17T05:21:13.392Z,67.20
2023-03-17T05:23:42.976Z,67.19
2023-03-17T05:26:11.433Z,67.37
2023-03-17T05:28:39.992Z,67.32
2023-03-17T05:31:11.074Z,67.34
2023-03-17T05:33:39.815Z,67.35
2023-03-17T05:36:08.712Z,67.67
2023-03-17T05:38:37.117Z,67.31
2023-03-17T05:41:05.720Z,67.42
2023-03-17T05:43:34.458Z,67.29
2023-03-17T05:46:03.778Z,67.18
2023-03-17T05:48:33.722Z,67.30
2023-03-17T05:51:02.172Z,67.46
2023-03-17T05:53:31.197Z,67.42
2023-03-17T05:55:59.666Z,67.07
2023-03-17T05:58:28.113Z,67.25
2023-03-17T06:00:56.980Z,67.37
2023-03-17T06:03:25.510Z,67.26
2023-03-17T06:05:55.293Z,67.14
2023-03-17T06:08:23.794Z,67.06
2023-03-17T06:10:52.305Z,67.35
2023-03-17T06:13:21.286Z,67.45
2023-03-17T06:15:52.571Z,67.46
2023-03-17T06:18:21.420Z,67.35
2023-03-17T06:20:49.815Z,67.08
2023-03-17T06:23:20.037Z,67.22
2023-03-17T06:25:48.698Z,67.28
2023-03-17T06:28:17.166Z,67.23
2023-03-17T06:30:45.743Z,67.32
2023-03-17T06:33:14.269Z,67.18
2023-03-17T06:35:42.702Z,67.00
2023-03-17T06:38:11.245Z,67.47
2023-03-17T06:40:41.454Z,67.08
2023-03-17T06:43:09.854Z,67.41
2023-03-17T06:45:38.266Z,67.34
2023-03-17T06:48:07.062Z,67.07
2023-03-17T06:50:35.624Z,67.06
2023-03-17T06:53:04.474Z,67.00
2023-03-17T06:55:33.873Z,67.29
2023-03-17T06:58:04.181Z,67.41
2023-03-17T07:00:33.036Z,67.30
2023-03-17T07:03:03.027Z,66.85
2023-03-17T07:05:31.847Z,67.06
2023-03-17T07:08:01.077Z,66.79
2023-03-17T07:10:29.514Z,66.97
2023-03-17T07:12:58.309Z,67.14
2023-03-17T07:15:28.187Z,66.59
2023-03-17T07:17:56.592Z,66.95
2023-03-17T07:20:25.046Z,67.01
2023-03-17T07:22:53.503Z,67.13
2023-03-17T07:25:22.502Z,66.93
2023-03-17T07:27:51.977Z,67.04
2023-03-17T07:30:20.678Z,66.85
2023-03-17T07:33:00.516Z,67.49
2023-03-17T07:35:30.560Z,67.46
2023-03-17T07:37:59.157Z,66.92
2023-03-17T07:40:27.801Z,67.53
2023-03-17T07:42:56.459Z,67.35
2023-03-17T07:45:24.893Z,67.41
2023-03-17T07:48:02.806Z,67.35
2023-03-17T07:50:37.813Z,67.05
2023-03-17T07:53:06.841Z,67.64
2023-03-17T07:55:37.081Z,67.41
2023-03-17T07:58:06.413Z,67.29
2023-03-17T08:00:35.477Z,67.18
2023-03-17T08:03:10.334Z,67.00
2023-03-17T08:05:41.247Z,67.15
2023-03-17T08:08:10.678Z,67.27
2023-03-17T08:10:39.639Z,67.25
2023-03-17T08:13:08.187Z,66.79
2023-03-17T08:15:36.783Z,66.71
2023-03-17T08:18:05.368Z,66.96
2023-03-17T08:20:34.925Z,67.08
2023-03-17T08:23:05.106Z,66.61
2023-03-17T08:25:33.502Z,66.64
2023-03-17T08:28:01.886Z,66.00
2023-03-17T08:30:33.838Z,65.78
2023-03-17T08:33:02.815Z,65.47
2023-03-17T08:35:31.830Z,65.07
2023-03-17T08:38:00.656Z,64.94
2023-03-17T08:40:31.587Z,64.67
2023-03-17T08:43:00.274Z,64.71
2023-03-17T08:45:28.973Z,64.29
2023-03-17T08:47:57.833Z,64.10
2023-03-17T08:50:26.728Z,63.94
2023-03-17T08:52:55.379Z,64.28
2023-03-17T08:55:23.859Z,64.24
2023-03-17T08:57:53.611Z,63.47
2023-03-17T09:00:22.754Z,63.95
2023-03-17T09:02:51.240Z,63.63
2023-03-17T09:05:20.644Z,63.15
2023-03-17T09:07:50.068Z,63.29
2023-03-17T09:10:22.673Z,63.40
2023-03-17T09:12:51.651Z,63.28
2023-03-17T09:15:22.060Z,63.24
2023-03-17T09:17:50.932Z,62.74
2023-03-17T09:20:20.349Z,62.44
2023-03-17T09:22:49.164Z,62.12
2023-03-17T09:25:17.972Z,62.36
2023-03-17T09:27:46.375Z,62.57
2023-03-17T09:30:16.424Z,62.24
2023-03-17T09:32:48.584Z,62.02
2023-03-17T09:35:17.273Z,61.88
2023-03-17T09:37:46.260Z,61.09
2023-03-17T09:40:19.828Z,61.15
2023-03-17T09:42:59.225Z,60.85
2023-03-17T09:45:33.114Z,60.35
2023-03-17T09:48:25.630Z,60.01
2023-03-17T09:50:59.047Z,59.68
2023-03-17T09:53:34.014Z,60.06
2023-03-17T09:56:07.847Z,59.79
2023-03-17T09:58:38.428Z,59.68
2023-03-17T10:01:07.415Z,59.39
2023-03-17T10:03:39.021Z,59.10
2023-03-17T10:06:23.620Z,58.63
2023-03-17T10:08:58.556Z,58.60
2023-03-17T10:11:36.132Z,58.00
2023-03-17T10:14:09.540Z,57.96
2023-03-17T10:16:47.114Z,57.65
2023-03-17T10:19:25.717Z,57.18
2023-03-17T10:21:58.849Z,57.43
2023-03-17T10:24:30.822Z,57.18
2023-03-17T10:27:04.661Z,56.93
2023-03-17T10:29:33.248Z,56.91
2023-03-17T10:32:01.736Z,56.50
2023-03-17T10:34:36.046Z,56.27
2023-03-17T10:37:08.716Z,56.05
2023-03-17T10:39:46.217Z,55.38
2023-03-17T10:42:23.004Z,55.15
2023-03-17T10:44:54.843Z,55.46
2023-03-17T10:47:31.633Z,55.11
2023-03-17T10:50:05.900Z,54.79
2023-03-17T10:52:40.775Z,54.61
2023-03-17T10:55:11.112Z,54.61
2023-03-17T10:57:53.863Z,54.02
2023-03-17T11:00:23.382Z,54.35
2023-03-17T11:02:57.557Z,54.28
2023-03-17T11:05:31.920Z,53.92
2023-03-17T11:08:10.461Z,53.34
2023-03-17T11:10:41.845Z,53.53
2023-03-17T11:13:10.438Z,53.40
2023-03-17T11:15:42.570Z,53.15
2023-03-17T11:18:17.963Z,52.69
2023-03-17T11:20:57.431Z,52.30
2023-03-17T11:23:40.636Z,52.05
2023-03-17T11:26:20.252Z,52.05
2023-03-17T11:28:55.608Z,51.75
2023-03-17T11:31:32.200Z,51.32
2023-03-17T11:34:08.699Z,51.29
2023-03-17T11:36:47.199Z,51.02
2023-03-17T11:39:21.997Z,50.92
2023-03-17T11:42:07.347Z,50.88
2023-03-17T11:44:56.277Z,50.98
2023-03-17T11:47:37.683Z,50.93
2023-03-17T11:50:17.688Z,51.19
2023-03-17T11:52:57.901Z,50.85
2023-03-17T11:55:32.627Z,51.02
2023-03-17T11:58:05.553Z,50.70
2023-03-17T12:00:37.415Z,50.68
2023-03-17T12:03:17.533Z,50.16
2023-03-17T12:05:54.594Z,50.33
2023-03-17T12:08:31.335Z,50.30
2023-03-17T12:11:02.971Z,50.28
2023-03-17T12:13:39.915Z,49.72
2023-03-17T12:16:11.384Z,49.75
2023-03-17T12:18:43.287Z,49.50
2023-03-17T12:21:18.727Z,49.38
2023-03-17T12:23:50.586Z,49.26
2023-03-17T12:26:21.186Z,49.34
2023-03-17T12:28:52.872Z,49.43
2023-03-17T12:31:24.942Z,49.11
2023-03-17T12:33:59.898Z,48.88
2023-03-17T12:36:29.109Z,48.92
2023-03-17T12:39:05.335Z,48.54
2023-03-17T12:42:01.609Z,48.07
2023-03-17T12:44:45.251Z,48.30
2023-03-17T12:47:34.354Z,48.16
2023-03-17T12:50:39.321Z,48.24
2023-03-17T12:53:29.778Z,48.72
2023-03-17T12:56:04.618Z,48.93
2023-03-17T12:58:38.991Z,48.48
2023-03-17T13:01:17.353Z,48.44
2023-03-17T13:04:02.056Z,48.36
2023-03-17T13:06:32.400Z,48.89
2023-03-17T13:09:31.681Z,48.60
2023-03-17T13:12:03.472Z,48.91
2023-03-17T13:14:42.532Z,48.66
2023-03-17T13:17:33.187Z,48.60
2023-03-17T13:20:14.387Z,49.09
2023-03-17T13:23:04.023Z,49.28
2023-03-17T13:25:35.141Z,49.46
2023-03-17T13:28:25.884Z,49.15
2023-03-17T13:31:09.065Z,49.35
2023-03-17T13:33:43.208Z,49.42
2023-03-17T13:36:33.983Z,49.43
2023-03-17T13:39:48.275Z,49.66
2023-03-17T13:42:29.809Z,49.83
2023-03-17T13:45:14.624Z,49.79
2023-03-17T13:47:43.935Z,50.04
2023-03-17T13:50:16.476Z,50.08
2023-03-17T13:52:49.704Z,49.94
2023-03-17T13:55:35.444Z,49.78
2023-03-17T13:58:26.076Z,50.09
2023-03-17T14:01:03.806Z,50.06
2023-03-17T14:03:41.270Z,50.10
2023-03-17T14:06:13.536Z,49.92
2023-03-17T14:08:47.727Z,50.05
2023-03-17T14:11:25.248Z,49.78
2023-03-17T14:14:06.020Z,49.99
2023-03-17T14:16:43.660Z,49.87
2023-03-17T14:19:19.170Z,49.98
2023-03-17T14:21:47.902Z,49.97
2023-03-17T14:24:21.867Z,50.02
2023-03-17T14:26:51.855Z,50.16
2023-03-17T14:29:26.167Z,50.01
2023-03-17T14:32:05.779Z,49.92
2023-03-17T14:34:35.039Z,50.21
2023-03-17T14:37:05.795Z,50.22
2023-03-17T14:39:34.937Z,50.42
2023-03-17T14:42:05.424Z,50.35
2023-03-17T14:44:41.053Z,50.58
2023-03-17T14:47:19.427Z,50.65
2023-03-17T14:49:48.899Z,50.73
2023-03-17T14:52:20.461Z,50.86
2023-03-17T14:54:53.333Z,50.86
2023-03-17T14:57:24.782Z,50.85
2023-03-17T15:00:00.841Z,50.89
2023-03-17T15:02:42.578Z,51.02
2023-03-17T15:05:25.784Z,51.06
2023-03-17T15:07:54.362Z,51.26
2023-03-17T15:10:25.925Z,51.29
2023-03-17T15:13:02.659Z,51.44
2023-03-17T15:15:34.339Z,51.44
2023-03-17T15:18:12.112Z,51.36
2023-03-17T15:20:43.127Z,51.24
2023-03-17T15:23:18.342Z,51.11
2023-03-17T15:25:49.985Z,50.87
2023-03-17T15:28:20.201Z,50.43
2023-03-17T15:30:50.428Z,49.87
2023-03-17T15:33:23.181Z,49.67
2023-03-17T15:35:51.784Z,49.17
2023-03-17T15:38:21.565Z,48.85
2023-03-17T15:40:50.229Z,48.35
2023-03-17T15:43:21.540Z,48.07
2023-03-17T15:45:55.425Z,47.82
2023-03-17T15:48:27.527Z,47.34
2023-03-17T15:50:57.546Z,47.23
2023-03-17T15:53:25.938Z,46.80
2023-03-17T15:55:54.616Z,46.60
2023-03-17T15:58:23.098Z,46.48
2023-03-17T16:00:54.633Z,46.25
2023-03-17T16:03:28.928Z,46.15
2023-03-17T16:05:57.485Z,46.04
2023-03-17T16:08:25.995Z,46.06
2023-03-17T16:10:54.576Z,46.23
2023-03-17T16:13:23.428Z,46.31
2023-03-17T16:15:55.047Z,46.44
2023-03-17T16:18:32.132Z,46.36
2023-03-17T16:21:02.842Z,46.50
2023-03-17T16:23:33.635Z,46.52
2023-03-17T16:26:14.272Z,46.56
2023-03-17T16:28:45.795Z,46.69
2023-03-17T16:31:20.683Z,46.82
2023-03-17T16:33:57.380Z,46.93
2023-03-17T16:36:26.871Z,47.02
2023-03-17T16:38:55.393Z,47.02
2023-03-17T16:41:27.407Z,46.87
2023-03-17T16:44:01.942Z,47.19
2023-03-17T16:46:35.511Z,47.14
2023-03-17T16:49:06.307Z,47.35
2023-03-17T16:51:34.715Z,47.77
2023-03-17T16:54:03.125Z,47.52
2023-03-17T16:56:31.868Z,47.85
2023-03-17T16:59:00.909Z,48.39
2023-03-17T17:01:30.147Z,48.42
2023-03-17T17:03:58.599Z,48.93
2023-03-17T17:06:28.378Z,48.68
2023-03-17T17:08:56.819Z,49.01
2023-03-17T17:11:25.213Z,49.30
2023-03-17T17:13:53.664Z,49.18
2023-03-17T17:16:26.577Z,49.52
2023-03-17T17:18:55.670Z,49.44
2023-03-17T17:21:24.654Z,49.66
2023-03-17T17:23:54.852Z,50.05
2023-03-17T17:26:23.826Z,49.80
2023-03-17T17:28:52.309Z,50.29
2023-03-17T17:31:20.973Z,50.12
2023-03-17T17:33:49.623Z,50.27
2023-03-17T17:36:18.669Z,50.40
2023-03-17T17:38:47.170Z,50.73
2023-03-17T17:41:17.083Z,50.57
2023-03-17T17:43:47.160Z,51.06
2023-03-17T17:46:18.558Z,50.93
2023-03-17T17:48:47.478Z,51.38
2023-03-17T17:51:15.977Z,51.55
2023-03-17T17:53:46.392Z,51.69
2023-03-17T17:56:17.706Z,51.72
2023-03-17T17:58:47.139Z,52.10
2023-03-17T18:01:19.800Z,52.31
2023-03-17T18:03:48.693Z,52.77
2023-03-17T18:06:18.054Z,53.02
2023-03-17T18:08:46.506Z,53.50
2023-03-17T18:11:16.272Z,53.63
2023-03-17T18:13:44.716Z,53.87
2023-03-17T18:16:16.296Z,54.27
2023-03-17T18:18:46.017Z,54.38
2023-03-17T18:21:14.688Z,54.72
2023-03-17T18:23:47.198Z,54.79
2023-03-17T18:26:20.208Z,54.85
2023-03-17T18:28:48.970Z,55.09
2023-03-17T18:31:21.618Z,55.26
2023-03-17T18:33:53.806Z,55.50
2023-03-17T18:36:22.853Z,55.75
2023-03-17T18:38:51.933Z,55.95
2023-03-17T18:41:22.019Z,56.02
2023-03-17T18:43:50.641Z,56.16
2023-03-17T18:46:19.122Z,56.34
2023-03-17T18:48:47.656Z,56.93
2023-03-17T18:51:16.185Z,57.27
2023-03-17T18:53:44.666Z,57.72
2023-03-17T18:56:13.410Z,57.71
2023-03-17T18:58:43.165Z,57.90
2023-03-17T19:01:11.684Z,58.32
2023-03-17T19:03:40.256Z,58.25
2023-03-17T19:06:10.886Z,58.66
2023-03-17T19:08:39.343Z,59.00
2023-03-17T19:11:08.946Z,59.29
2023-03-17T19:13:38.472Z,59.01
2023-03-17T19:16:10.506Z,59.10
2023-03-17T19:18:41.900Z,59.21
2023-03-17T19:21:11.650Z,59.25
2023-03-17T19:23:41.310Z,59.49
2023-03-17T19:26:10.314Z,59.23
2023-03-17T19:28:38.763Z,59.32
2023-03-17T19:31:09.507Z,59.40
2023-03-17T19:33:38.290Z,59.34
2023-03-17T19:36:09.014Z,59.37
2023-03-17T19:38:37.935Z,59.27
2023-03-17T19:41:06.806Z,59.83
2023-03-17T19:43:40.914Z,59.71
2023-03-17T19:46:12.456Z,60.28
2023-03-17T19:48:43.524Z,60.05
2023-03-17T19:51:12.758Z,60.48
2023-03-17T19:53:41.306Z,60.51
2023-03-17T19:56:10.918Z,61.81
2023-03-17T19:58:39.363Z,61.63
2023-03-17T20:01:09.306Z,62.06
2023-03-17T20:03:42.535Z,62.13
2023-03-17T20:06:11.320Z,62.47
2023-03-17T20:08:39.796Z,63.00
2023-03-17T20:11:08.407Z,63.15
2023-03-17T20:13:38.038Z,63.07
2023-03-17T20:16:08.532Z,63.30
2023-03-17T20:18:36.979Z,62.95
2023-03-17T20:21:07.779Z,63.55
2023-03-17T20:23:37.798Z,63.72
2023-03-17T20:26:07.000Z,63.28
2023-03-17T20:28:35.859Z,63.63
2023-03-17T20:31:04.931Z,63.39
2023-03-17T20:33:34.383Z,63.25
2023-03-17T20:36:03.200Z,63.46
2023-03-17T20:38:36.890Z,63.28
2023-03-17T20:41:07.427Z,63.63
2023-03-17T20:43:37.605Z,63.53
2023-03-17T20:46:08.724Z,63.32
2023-03-17T20:48:38.263Z,63.59
2023-03-17T20:51:07.123Z,63.93
2023-03-17T20:53:37.576Z,63.61
2023-03-17T20:56:06.749Z,63.57
2023-03-17T20:58:35.308Z,63.50
2023-03-17T21:01:03.872Z,64.09
2023-03-17T21:03:32.406Z,64.14
2023-03-17T21:06:01.346Z,64.38
2023-03-17T21:08:29.696Z,64.18
2023-03-17T21:10:59.414Z,63.90
2023-03-17T21:13:27.812Z,64.11
2023-03-17T21:15:56.804Z,63.90
2023-03-17T21:18:25.357Z,63.60
2023-03-17T21:20:53.912Z,63.79
2023-03-17T21:23:22.912Z,63.76
2023-03-17T21:25:56.378Z,63.96
2023-03-17T21:28:26.789Z,64.98
2023-03-17T21:30:55.209Z,64.26
2023-03-17T21:33:23.679Z,64.22
2023-03-17T21:35:52.363Z,65.07
2023-03-17T21:38:20.812Z,64.42
2023-03-17T21:40:49.232Z,64.86
2023-03-17T21:43:18.654Z,64.79
2023-03-17T21:45:48.484Z,64.52
2023-03-17T21:48:16.965Z,64.80
2023-03-17T21:50:45.530Z,65.07
2023-03-17T21:53:15.856Z,64.63
2023-03-17T21:55:45.318Z,64.14
2023-03-17T21:58:13.880Z,64.41
2023-03-17T22:00:45.502Z,64.22
2023-03-17T22:03:15.992Z,64.67
2023-03-17T22:05:47.051Z,64.91
2023-03-17T22:08:15.477Z,65.01
2023-03-17T22:10:43.862Z,65.17
2023-03-17T22:13:12.549Z,65.65
2023-03-17T22:15:41.075Z,65.28
2023-03-17T22:18:09.518Z,65.23
2023-03-17T22:20:39.662Z,65.80
2023-03-17T22:23:08.307Z,66.27
2023-03-17T22:25:36.710Z,66.29
2023-03-17T22:28:05.170Z,66.17
2023-03-17T22:30:33.899Z,66.26
2023-03-17T22:33:02.646Z,66.22
2023-03-17T22:35:31.151Z,65.71
2023-03-17T22:38:01.604Z,65.84
2023-03-17T22:40:31.533Z,66.08
2023-03-17T22:43:00.368Z,65.70
2023-03-17T22:45:29.667Z,65.98
2023-03-17T22:47:58.313Z,65.47
2023-03-17T22:50:26.684Z,65.38
2023-03-17T22:52:55.186Z,65.93
2023-03-17T22:55:24.976Z,66.17
2023-03-17T22:57:53.323Z,65.84
2023-03-17T23:00:22.272Z,66.09
2023-03-17T23:02:50.638Z,66.49
2023-03-17T23:05:19.390Z,66.80
2023-03-17T23:07:51.732Z,66.86
2023-03-17T23:10:24.748Z,67.35
2023-03-17T23:12:54.562Z,67.35
2023-03-17T23:15:23.130Z,67.61
2023-03-17T23:17:51.983Z,67.62
2023-03-17T23:20:20.631Z,67.29
2023-03-17T23:22:49.182Z,67.25
2023-03-17T23:25:18.081Z,67.10
2023-03-17T23:27:46.936Z,67.11
2023-03-17T23:30:18.800Z,67.39
2023-03-17T23:32:49.234Z,67.60
2023-03-17T23:35:19.522Z,67.96
2023-03-17T23:37:48.086Z,68.04
2023-03-17T23:40:17.328Z,67.90
2023-03-17T23:42:48.108Z,67.66
2023-03-17T23:45:18.622Z,68.03
2023-03-17T23:47:48.261Z,68.39
2023-03-17T23:50:17.256Z,68.43
2023-03-17T23:52:47.137Z,68.35
2023-03-17T23:55:17.181Z,68.21
2023-03-17T23:57:46.428Z,67.97
